Time;durP1;ratioP1;P1;durP2;ratioP2;P2;SDS_P1;SDS_P2;PMS_P1;PMS_P2;Temp;Humidity;BMP_temperature;BMP_pressure;BME280_temperature;BME280_humidity;BME280_pressure;Samples;Min_cycle;Max_cycle;Signal;HPM_P1;HPM_P2
2020/12/11 00:00:06;;;;;;;94.63;37.58;;;2.60;91.70;;;;;;2072899;28;20026;-70
2020/12/11 00:01:07;;;;;;;103.82;39.55;;;2.50;91.70;;;;;;2073168;28;20745;-70
2020/12/11 00:02:08;;;;;;;104.07;39.70;;;2.50;91.70;;;;;;2073209;28;20137;-71
2020/12/11 00:03:09;;;;;;;100.60;39.20;;;2.60;91.80;;;;;;2073206;28;20079;-69
2020/12/11 00:04:10;;;;;;;101.90;40.53;;;2.60;91.80;;;;;;2073043;28;20088;-70
2020/12/11 00:05:10;;;;;;;103.38;39.70;;;2.50;91.70;;;;;;2073359;28;20034;-70
2020/12/11 00:06:19;;;;;;;97.53;39.35;;;2.50;91.70;;;;;;2073279;28;20038;-69
2020/12/11 00:07:20;;;;;;;106.53;41.38;;;2.60;91.80;;;;;;2080674;28;20572;-69
2020/12/11 00:08:20;;;;;;;101.97;39.42;;;2.60;91.80;;;;;;2080447;28;20083;-69
2020/12/11 00:09:21;;;;;;;102.05;39.45;;;2.50;91.80;;;;;;2073425;28;20106;-70
2020/12/11 00:10:22;;;;;;;96.97;38.00;;;2.50;91.80;;;;;;2079848;28;20033;-68
2020/12/11 00:11:28;;;;;;;107.70;41.30;;;2.50;91.90;;;;;;2080660;28;20056;-69
2020/12/11 00:12:28;;;;;;;106.80;39.80;;;2.60;91.90;;;;;;2073110;28;20638;-69
2020/12/11 00:13:29;;;;;;;107.03;41.03;;;2.60;91.90;;;;;;2072600;28;20037;-69
2020/12/11 00:14:30;;;;;;;103.60;40.47;;;2.60;91.90;;;;;;2072547;28;20049;-69
2020/12/11 00:15:30;;;;;;;110.95;42.55;;;2.60;91.90;;;;;;2073060;28;20041;-70
2020/12/11 00:16:31;;;;;;;101.05;40.55;;;2.60;91.80;;;;;;2073043;28;20482;-69
2020/12/11 00:17:32;;;;;;;108.63;40.60;;;2.50;91.90;;;;;;2073132;28;20670;-69
2020/12/11 00:18:33;;;;;;;102.10;39.50;;;2.60;92.00;;;;;;2072218;28;20022;-70
2020/12/11 00:19:33;;;;;;;105.30;40.72;;;2.60;92.00;;;;;;2072612;28;20037;-70
2020/12/11 00:20:34;;;;;;;107.45;40.13;;;2.60;92.00;;;;;;2072879;28;20026;-70
2020/12/11 00:21:42;;;;;;;105.55;38.70;;;2.60;91.90;;;;;;2073109;28;20397;-70
2020/12/11 00:22:42;;;;;;;102.78;39.03;;;2.60;92.00;;;;;;2073149;28;20084;-70
2020/12/11 00:23:43;;;;;;;105.60;40.78;;;2.60;92.00;;;;;;2073288;28;20026;-70
2020/12/11 00:24:44;;;;;;;108.55;40.35;;;2.60;92.00;;;;;;2073115;28;20080;-70
2020/12/11 00:25:45;;;;;;;109.35;40.72;;;2.60;92.00;;;;;;2073137;28;20040;-70
2020/12/11 00:26:46;;;;;;;112.95;42.17;;;2.60;92.00;;;;;;2072993;28;20025;-70
2020/12/11 00:27:47;;;;;;;106.72;40.65;;;2.60;92.00;;;;;;2072756;28;20462;-70
2020/12/11 00:28:48;;;;;;;104.13;40.00;;;2.60;92.10;;;;;;2072525;28;20524;-70
2020/12/11 00:29:48;;;;;;;107.90;40.42;;;2.60;92.10;;;;;;2072760;28;20030;-70
2020/12/11 00:30:49;;;;;;;112.95;42.38;;;2.60;92.10;;;;;;2072940;28;20068;-70
2020/12/11 00:31:50;;;;;;;109.22;41.53;;;2.60;92.20;;;;;;2072456;28;20033;-69
2020/12/11 00:32:50;;;;;;;108.82;41.20;;;2.60;92.10;;;;;;2071991;28;20088;-70
2020/12/11 00:33:52;;;;;;;112.00;41.58;;;2.60;92.20;;;;;;2072403;28;20065;-69
2020/12/11 00:34:53;;;;;;;106.38;40.38;;;2.60;92.10;;;;;;2072312;28;20036;-70
2020/12/11 00:35:54;;;;;;;106.15;41.80;;;2.60;92.10;;;;;;2073284;28;20690;-70
2020/12/11 00:36:54;;;;;;;106.45;40.75;;;2.60;92.00;;;;;;2072830;28;20025;-70
2020/12/11 00:37:56;;;;;;;113.32;41.70;;;2.60;92.10;;;;;;2073101;28;20018;-70
2020/12/11 00:38:57;;;;;;;107.05;41.17;;;2.60;92.00;;;;;;2072444;28;20022;-70
2020/12/11 00:39:58;;;;;;;102.80;41.13;;;2.60;92.10;;;;;;2073576;28;20019;-70
2020/12/11 00:40:58;;;;;;;103.25;40.92;;;2.60;92.10;;;;;;2074325;28;20060;-70
2020/12/11 00:41:59;;;;;;;102.22;40.03;;;2.60;92.10;;;;;;2074695;28;20026;-70
2020/12/11 00:43:00;;;;;;;104.00;39.70;;;2.60;92.10;;;;;;2074524;28;20034;-70
2020/12/11 00:44:01;;;;;;;104.35;39.72;;;2.60;92.10;;;;;;2076161;28;20034;-70
2020/12/11 00:45:01;;;;;;;107.00;40.80;;;2.60;92.10;;;;;;2075057;28;20057;-70
2020/12/11 00:46:02;;;;;;;111.68;42.72;;;2.60;92.00;;;;;;2072971;28;20026;-70
2020/12/11 00:47:03;;;;;;;105.47;39.88;;;2.70;92.00;;;;;;2073034;28;20201;-69
2020/12/11 00:48:04;;;;;;;101.30;40.83;;;2.70;92.00;;;;;;2072282;28;20104;-70
2020/12/11 00:49:05;;;;;;;105.43;40.00;;;2.70;92.10;;;;;;2071833;28;20037;-70
2020/12/11 00:50:05;;;;;;;99.05;38.35;;;2.70;92.00;;;;;;2072607;28;20025;-70
2020/12/11 00:51:06;;;;;;;95.00;37.72;;;2.70;92.00;;;;;;2072843;28;20022;-70
2020/12/11 00:52:07;;;;;;;94.82;38.50;;;2.70;91.90;;;;;;2072880;28;20458;-70
2020/12/11 00:53:12;;;;;;;90.85;37.20;;;2.70;91.80;;;;;;2072308;28;20204;-70
2020/12/11 00:54:12;;;;;;;90.30;37.20;;;2.70;91.80;;;;;;2071971;28;20479;-70
2020/12/11 00:55:16;;;;;;;97.90;39.17;;;2.60;91.70;;;;;;2072110;28;20042;-70
2020/12/11 00:56:16;;;;;;;90.10;36.30;;;2.60;91.70;;;;;;2072439;28;20080;-70
2020/12/11 00:57:17;;;;;;;87.25;36.22;;;2.60;91.80;;;;;;2072911;28;20531;-70
2020/12/11 00:58:18;;;;;;;92.47;38.13;;;2.60;91.70;;;;;;2072387;28;20045;-70
2020/12/11 00:59:19;;;;;;;90.18;36.60;;;2.60;91.70;;;;;;2072570;28;20077;-70
2020/12/11 01:00:19;;;;;;;93.40;37.63;;;2.60;91.80;;;;;;2072676;28;20053;-70
2020/12/11 01:01:20;;;;;;;94.05;38.40;;;2.60;91.80;;;;;;2072860;28;20092;-70
2020/12/11 01:02:21;;;;;;;99.30;38.60;;;2.60;91.80;;;;;;2073103;28;20034;-70
2020/12/11 01:03:21;;;;;;;97.55;38.42;;;2.50;91.80;;;;;;2072927;28;20034;-70
2020/12/11 01:04:22;;;;;;;93.13;37.65;;;2.60;91.80;;;;;;2072838;28;20432;-69
2020/12/11 01:05:23;;;;;;;93.32;37.80;;;2.50;91.80;;;;;;2073015;28;20045;-69
2020/12/11 01:06:23;;;;;;;94.45;37.53;;;2.60;91.80;;;;;;2072937;28;20120;-70
2020/12/11 01:07:24;;;;;;;90.38;38.25;;;2.60;91.80;;;;;;2072578;28;20026;-70
2020/12/11 01:08:24;;;;;;;91.38;37.22;;;2.60;91.90;;;;;;2072384;28;20030;-70
2020/12/11 01:09:25;;;;;;;91.97;39.22;;;2.60;91.90;;;;;;2072772;28;20042;-69
2020/12/11 01:10:26;;;;;;;90.63;37.15;;;2.50;91.90;;;;;;2071851;28;20037;-70
2020/12/11 01:11:27;;;;;;;97.32;38.90;;;2.60;92.00;;;;;;2072183;28;20029;-70
2020/12/11 01:12:27;;;;;;;93.22;38.42;;;2.60;91.90;;;;;;2072857;28;20034;-69
2020/12/11 01:13:28;;;;;;;93.47;38.05;;;2.60;91.90;;;;;;2072849;28;20493;-70
2020/12/11 01:14:29;;;;;;;92.80;38.50;;;2.60;91.90;;;;;;2072655;28;20690;-70
2020/12/11 01:15:29;;;;;;;93.45;38.08;;;2.60;91.90;;;;;;2071698;28;20130;-70
2020/12/11 01:16:30;;;;;;;95.22;40.65;;;2.60;91.80;;;;;;2071753;28;20044;-70
2020/12/11 01:17:31;;;;;;;96.90;40.58;;;2.60;91.80;;;;;;2072092;28;20030;-70
2020/12/11 01:18:32;;;;;;;101.50;41.25;;;2.60;91.90;;;;;;2071176;28;20077;-70
2020/12/11 01:19:32;;;;;;;99.63;40.85;;;2.60;91.90;;;;;;2072608;28;20034;-70
2020/12/11 01:20:33;;;;;;;97.32;40.40;;;2.60;91.90;;;;;;2072373;28;20067;-70
2020/12/11 01:21:34;;;;;;;101.05;41.85;;;2.60;91.90;;;;;;2072748;28;20030;-70
2020/12/11 01:22:34;;;;;;;97.45;40.78;;;2.60;91.80;;;;;;2072582;28;20026;-70
2020/12/11 01:23:35;;;;;;;99.45;40.22;;;2.60;91.80;;;;;;2072745;28;20048;-70
2020/12/11 01:24:36;;;;;;;99.82;40.13;;;2.70;91.80;;;;;;2072630;28;20542;-69
2020/12/11 01:25:37;;;;;;;103.43;41.70;;;2.60;91.80;;;;;;2072750;28;20125;-70
2020/12/11 01:26:37;;;;;;;106.85;42.13;;;2.60;91.70;;;;;;2072279;28;20850;-70
2020/12/11 01:27:38;;;;;;;99.35;41.15;;;2.70;91.80;;;;;;2071897;28;20114;-69
2020/12/11 01:28:39;;;;;;;97.18;39.58;;;2.60;91.70;;;;;;2071450;28;20029;-70
2020/12/11 01:29:39;;;;;;;99.53;39.70;;;2.60;91.70;;;;;;2072322;28;20037;-70
2020/12/11 01:30:40;;;;;;;93.20;39.65;;;2.60;91.70;;;;;;2072388;28;20112;-69
2020/12/11 01:31:41;;;;;;;93.28;38.83;;;2.60;91.80;;;;;;2072707;28;20080;-70
2020/12/11 01:32:41;;;;;;;94.20;38.55;;;2.60;91.80;;;;;;2071866;28;20116;-70
2020/12/11 01:33:46;;;;;;;90.50;37.40;;;2.70;91.80;;;;;;2072094;28;20038;-69
2020/12/11 01:34:46;;;;;;;93.20;37.60;;;2.60;91.80;;;;;;2072266;28;20049;-70
2020/12/11 01:35:47;;;;;;;97.53;39.72;;;2.70;91.90;;;;;;2072660;28;20033;-70
2020/12/11 01:36:48;;;;;;;92.18;37.75;;;2.70;91.80;;;;;;2072523;28;20022;-70
2020/12/11 01:37:48;;;;;;;89.72;38.08;;;2.70;91.70;;;;;;2072774;28;20073;-70
2020/12/11 01:38:49;;;;;;;87.82;37.33;;;2.70;91.80;;;;;;2071938;28;20022;-70
2020/12/11 01:39:50;;;;;;;86.50;36.35;;;2.70;91.80;;;;;;2072491;28;20033;-70
2020/12/11 01:40:50;;;;;;;89.57;36.75;;;2.70;91.70;;;;;;2072759;28;20025;-70
2020/12/11 01:41:51;;;;;;;88.03;37.20;;;2.70;91.60;;;;;;2072906;28;20024;-70
2020/12/11 01:42:52;;;;;;;87.47;37.03;;;2.70;91.60;;;;;;2072887;28;20524;-70
2020/12/11 01:43:52;;;;;;;87.82;36.78;;;2.60;91.60;;;;;;2073255;28;20531;-70
2020/12/11 01:44:54;;;;;;;89.00;36.45;;;2.70;91.80;;;;;;2073081;28;20125;-70
2020/12/11 01:45:54;;;;;;;83.57;35.00;;;2.70;91.80;;;;;;2073060;28;20022;-70
2020/12/11 01:46:57;;;;;;;82.53;35.10;;;2.60;91.80;;;;;;2072741;28;20477;-70
2020/12/11 01:47:58;;;;;;;81.03;35.40;;;2.70;91.80;;;;;;2072777;28;20377;-70
2020/12/11 01:48:59;;;;;;;85.82;36.72;;;2.70;91.80;;;;;;2072294;28;20026;-70
2020/12/11 01:49:59;;;;;;;90.80;37.70;;;2.70;91.80;;;;;;2072792;28;20030;-70
2020/12/11 01:51:00;;;;;;;96.35;38.42;;;2.70;91.70;;;;;;2073167;28;20644;-70
2020/12/11 01:52:01;;;;;;;98.32;40.08;;;2.70;91.60;;;;;;2072965;28;20392;-69
2020/12/11 01:53:02;;;;;;;100.25;39.05;;;2.70;91.60;;;;;;2072609;28;20539;-70
2020/12/11 01:54:04;;;;;;;101.18;39.40;;;2.70;91.60;;;;;;2072570;28;20057;-71
2020/12/11 01:55:05;;;;;;;102.30;40.65;;;2.70;91.70;;;;;;2073131;28;20512;-70
2020/12/11 01:56:06;;;;;;;106.25;41.38;;;2.70;91.70;;;;;;2072610;28;20032;-70
2020/12/11 01:57:13;;;;;;;96.43;40.45;;;2.70;91.70;;;;;;2073071;28;20104;-70
2020/12/11 01:58:18;;;;;;;96.53;39.00;;;2.70;91.70;;;;;;2073324;28;20045;-70
2020/12/11 01:59:35;;;;;;;93.35;38.50;;;2.70;91.70;;;;;;2072856;28;20026;-70
2020/12/11 02:00:41;;;;;;;90.30;38.03;;;2.70;91.60;;;;;;2072756;28;20033;-70
2020/12/11 02:01:46;;;;;;;88.45;36.97;;;2.70;91.60;;;;;;2072724;28;20413;-70
2020/12/11 02:02:48;;;;;;;87.88;36.72;;;2.70;91.50;;;;;;2072596;28;20557;-70
2020/12/11 02:03:48;;;;;;;84.47;36.40;;;2.70;91.50;;;;;;2071822;28;20018;-70
2020/12/11 02:04:49;;;;;;;89.60;37.38;;;2.70;91.60;;;;;;2072104;28;20116;-70
2020/12/11 02:05:50;;;;;;;98.50;39.88;;;2.70;91.50;;;;;;2072618;28;20025;-70
2020/12/11 02:06:51;;;;;;;97.45;38.95;;;2.70;91.50;;;;;;2071935;28;20041;-70
2020/12/11 02:07:52;;;;;;;111.28;40.50;;;2.70;91.50;;;;;;2063868;28;20034;-70
2020/12/11 02:08:56;;;;;;;98.72;39.50;;;2.70;91.50;;;;;;2071339;28;20505;-70
2020/12/11 02:09:57;;;;;;;103.07;40.70;;;2.70;91.50;;;;;;2072342;28;20397;-70
2020/12/11 02:10:57;;;;;;;102.93;38.45;;;2.70;91.60;;;;;;2072394;28;20036;-70
2020/12/11 02:11:58;;;;;;;89.70;37.03;;;2.70;91.60;;;;;;2072360;28;20053;-70
2020/12/11 02:13:08;;;;;;;89.65;36.85;;;2.70;91.60;;;;;;2072307;28;20026;-70
2020/12/11 02:14:10;;;;;;;84.80;35.80;;;2.70;91.60;;;;;;2072511;28;20120;-70
2020/12/11 02:15:11;;;;;;;87.45;36.22;;;2.70;91.60;;;;;;2072301;28;20030;-70
2020/12/11 02:16:11;;;;;;;82.05;34.20;;;2.70;91.50;;;;;;2072327;28;20116;-70
2020/12/11 02:17:12;;;;;;;89.45;36.63;;;2.70;91.50;;;;;;2072352;28;20030;-70
2020/12/11 02:18:13;;;;;;;85.03;36.05;;;2.70;91.50;;;;;;2072330;28;20076;-70
2020/12/11 02:19:14;;;;;;;86.35;36.30;;;2.70;91.60;;;;;;2071947;28;20030;-70
2020/12/11 02:20:15;;;;;;;83.65;36.42;;;2.80;91.90;;;;;;2071597;28;20026;-70
2020/12/11 02:21:17;;;;;;;85.53;35.72;;;2.70;91.60;;;;;;2071703;28;20034;-70
2020/12/11 02:22:18;;;;;;;85.90;37.28;;;2.80;91.60;;;;;;2072352;28;20173;-70
2020/12/11 02:23:19;;;;;;;87.90;36.95;;;2.70;91.50;;;;;;2072343;28;20171;-70
2020/12/11 02:24:19;;;;;;;86.78;36.30;;;2.70;91.90;;;;;;2072372;28;20438;-70
2020/12/11 02:25:20;;;;;;;85.68;36.60;;;2.80;91.60;;;;;;2072294;28;20049;-70
2020/12/11 02:26:24;;;;;;;86.32;36.55;;;2.80;91.60;;;;;;2072310;28;20037;-70
2020/12/11 02:27:24;;;;;;;90.07;37.50;;;2.80;91.70;;;;;;2073656;28;20030;-70
2020/12/11 02:28:32;;;;;;;86.15;36.33;;;2.80;91.70;;;;;;2073756;28;20114;-70
2020/12/11 02:29:33;;;;;;;88.57;37.53;;;2.80;91.60;;;;;;2073928;28;20515;-70
2020/12/11 02:30:33;;;;;;;89.43;36.78;;;2.80;91.60;;;;;;2073749;28;20046;-70
2020/12/11 02:31:35;;;;;;;89.32;37.72;;;2.80;91.60;;;;;;2073230;28;20799;-71
2020/12/11 02:32:35;;;;;;;94.75;40.17;;;2.80;91.60;;;;;;2057262;28;20039;-70
2020/12/11 02:33:36;;;;;;;91.32;38.25;;;2.80;91.50;;;;;;2065436;28;20498;-70
2020/12/11 02:34:37;;;;;;;89.10;37.58;;;2.80;91.50;;;;;;2081627;28;20032;-69
2020/12/11 02:35:41;;;;;;;85.22;36.55;;;2.80;91.50;;;;;;2081525;28;20651;-70
2020/12/11 02:36:42;;;;;;;88.07;37.45;;;2.80;91.60;;;;;;2073983;28;20072;-70
2020/12/11 02:37:43;;;;;;;86.53;37.85;;;2.80;91.60;;;;;;2073985;28;20026;-70
2020/12/11 02:38:43;;;;;;;82.53;35.60;;;2.90;91.60;;;;;;2073680;28;20055;-70
2020/12/11 02:39:44;;;;;;;83.30;35.95;;;2.80;91.60;;;;;;2073830;28;20445;-70
2020/12/11 02:40:50;;;;;;;86.45;35.83;;;2.80;91.60;;;;;;2081438;28;20032;-70
2020/12/11 02:41:50;;;;;;;81.90;35.22;;;2.80;91.60;;;;;;2080961;28;20018;-70
2020/12/11 02:42:51;;;;;;;85.20;36.05;;;2.90;91.60;;;;;;2074057;28;20040;-70
2020/12/11 02:43:52;;;;;;;82.72;34.97;;;2.90;91.50;;;;;;2073957;28;20129;-70
2020/12/11 02:44:52;;;;;;;85.40;35.92;;;2.90;91.50;;;;;;2073992;28;20040;-70
2020/12/11 02:45:53;;;;;;;87.63;36.35;;;2.90;91.40;;;;;;2074079;28;20036;-69
2020/12/11 02:46:54;;;;;;;91.82;37.65;;;2.90;91.40;;;;;;2066052;28;20505;-70
2020/12/11 02:47:54;;;;;;;87.50;37.38;;;2.90;91.30;;;;;;2065231;28;20559;-70
2020/12/11 02:48:55;;;;;;;85.80;35.55;;;2.90;91.30;;;;;;2065444;28;20022;-70
2020/12/11 02:49:56;;;;;;;86.28;36.35;;;2.90;91.30;;;;;;2065744;28;20021;-70
2020/12/11 02:50:58;;;;;;;83.47;35.63;;;2.90;91.30;;;;;;2065769;28;20035;-70
2020/12/11 02:51:58;;;;;;;83.88;35.40;;;3.00;91.30;;;;;;2065784;28;20014;-70
2020/12/11 02:52:59;;;;;;;82.25;35.10;;;2.90;91.30;;;;;;2065153;28;20413;-71
2020/12/11 02:54:00;;;;;;;79.90;35.08;;;3.00;91.30;;;;;;2065194;28;20033;-70
2020/12/11 02:55:01;;;;;;;87.20;35.55;;;3.00;91.30;;;;;;2065709;28;20506;-69
2020/12/11 02:56:02;;;;;;;85.30;36.72;;;3.00;91.20;;;;;;2065758;28;20682;-70
2020/12/11 02:57:02;;;;;;;87.25;36.95;;;3.00;91.20;;;;;;2065740;28;20385;-70
2020/12/11 02:58:03;;;;;;;81.63;34.72;;;3.00;91.10;;;;;;2065771;28;20500;-70
2020/12/11 02:59:04;;;;;;;84.15;35.50;;;3.00;91.10;;;;;;2064721;28;20029;-70
2020/12/11 03:00:05;;;;;;;80.80;34.65;;;3.00;91.10;;;;;;2064880;28;20531;-70
2020/12/11 03:01:05;;;;;;;78.28;35.55;;;3.00;91.10;;;;;;2065711;28;20057;-70
2020/12/11 03:02:06;;;;;;;77.00;34.80;;;3.00;91.20;;;;;;2065077;28;20101;-70
2020/12/11 03:03:07;;;;;;;92.07;39.30;;;3.00;91.10;;;;;;2064968;28;20417;-69
2020/12/11 03:04:07;;;;;;;75.00;33.97;;;3.00;91.10;;;;;;2065133;28;20097;-70
2020/12/11 03:05:08;;;;;;;77.88;34.30;;;3.00;91.10;;;;;;2065726;28;20459;-69
2020/12/11 03:06:09;;;;;;;75.00;34.65;;;3.00;91.10;;;;;;2065651;28;20108;-70
2020/12/11 03:07:09;;;;;;;75.65;33.47;;;3.00;91.10;;;;;;2065721;28;20041;-70
2020/12/11 03:08:10;;;;;;;77.22;33.20;;;3.00;91.20;;;;;;2065668;28;20018;-70
2020/12/11 03:09:11;;;;;;;80.13;34.42;;;3.00;91.10;;;;;;2065416;28;20504;-70
2020/12/11 03:10:12;;;;;;;80.13;34.58;;;3.00;91.40;;;;;;2065465;28;20052;-69
2020/12/11 03:11:12;;;;;;;79.32;34.45;;;3.00;91.10;;;;;;2065592;28;20030;-70
2020/12/11 03:12:16;;;;;;;75.45;33.42;;;3.00;91.10;;;;;;2065687;28;20031;-70
2020/12/11 03:13:16;;;;;;;77.13;34.25;;;3.00;91.00;;;;;;2065629;28;20106;-70
2020/12/11 03:14:17;;;;;;;80.43;35.25;;;3.00;91.40;;;;;;2065607;28;20672;-70
2020/12/11 03:15:17;;;;;;;75.70;35.15;;;3.00;91.00;;;;;;2065612;28;20113;-70
2020/12/11 03:16:18;;;;;;;80.03;35.92;;;3.00;91.00;;;;;;2065576;28;20105;-70
2020/12/11 03:17:19;;;;;;;76.95;34.60;;;3.00;91.00;;;;;;2065536;28;20030;-69
2020/12/11 03:18:20;;;;;;;78.85;34.35;;;3.10;91.00;;;;;;2065345;28;20065;-70
2020/12/11 03:19:20;;;;;;;78.82;35.15;;;3.10;91.10;;;;;;2065565;28;20146;-70
2020/12/11 03:20:24;;;;;;;78.70;35.78;;;3.10;91.00;;;;;;2072862;28;20038;-69
2020/12/11 03:21:24;;;;;;;77.85;34.60;;;3.10;90.90;;;;;;2072766;28;20025;-70
2020/12/11 03:22:25;;;;;;;74.88;34.65;;;3.10;90.90;;;;;;2065641;28;20650;-69
2020/12/11 03:23:26;;;;;;;73.35;33.80;;;3.00;90.90;;;;;;2065538;28;20081;-70
2020/12/11 03:24:26;;;;;;;74.53;33.90;;;3.00;90.90;;;;;;2065492;28;20034;-70
2020/12/11 03:25:27;;;;;;;79.25;35.25;;;3.10;90.90;;;;;;2065494;28;20045;-70
2020/12/11 03:26:28;;;;;;;81.93;36.38;;;3.10;90.80;;;;;;2065486;28;20036;-70
2020/12/11 03:27:28;;;;;;;78.22;35.08;;;3.10;90.80;;;;;;2065496;28;20109;-70
2020/12/11 03:28:30;;;;;;;78.25;35.00;;;3.00;90.70;;;;;;2065148;28;20662;-70
2020/12/11 03:29:31;;;;;;;72.93;33.13;;;3.00;90.80;;;;;;2065417;28;20034;-70
2020/12/11 03:30:31;;;;;;;73.57;33.75;;;3.00;90.80;;;;;;2065488;28;20061;-70
2020/12/11 03:31:32;;;;;;;73.82;33.35;;;3.10;90.80;;;;;;2065646;28;20026;-70
2020/12/11 03:32:33;;;;;;;72.90;33.90;;;3.10;90.80;;;;;;2065397;28;20398;-70
2020/12/11 03:33:33;;;;;;;73.05;33.15;;;3.00;90.70;;;;;;2065392;28;20038;-70
2020/12/11 03:34:34;;;;;;;75.18;33.78;;;3.00;90.70;;;;;;2064754;28;20034;-69
2020/12/11 03:35:36;;;;;;;68.60;32.25;;;3.00;90.70;;;;;;2064934;28;20417;-70
2020/12/11 03:36:37;;;;;;;71.18;33.17;;;3.00;90.70;;;;;;2069881;28;20017;-69
2020/12/11 03:37:37;;;;;;;73.18;33.05;;;3.00;90.80;;;;;;2072942;28;20026;-69
2020/12/11 03:38:38;;;;;;;69.97;31.90;;;3.00;90.80;;;;;;2072502;28;20492;-70
2020/12/11 03:39:39;;;;;;;70.63;32.50;;;3.00;90.80;;;;;;2073264;28;20080;-69
2020/12/11 03:40:39;;;;;;;68.97;32.08;;;3.10;90.90;;;;;;2073475;28;20811;-69
2020/12/11 03:41:40;;;;;;;72.93;33.42;;;3.10;90.90;;;;;;2073488;28;20040;-70
2020/12/11 03:42:41;;;;;;;70.75;33.05;;;3.10;90.90;;;;;;2073447;28;20018;-70
2020/12/11 03:43:42;;;;;;;68.13;32.15;;;3.10;90.90;;;;;;2072964;28;20036;-70
2020/12/11 03:44:43;;;;;;;74.32;34.20;;;3.10;90.80;;;;;;2072987;28;20026;-70
2020/12/11 03:45:43;;;;;;;72.85;33.42;;;3.10;90.80;;;;;;2081133;28;20435;-70
2020/12/11 03:46:44;;;;;;;70.97;33.10;;;3.10;90.70;;;;;;2073393;28;20056;-70
2020/12/11 03:47:45;;;;;;;75.90;34.22;;;3.10;90.70;;;;;;2073532;28;20025;-69
2020/12/11 03:48:47;;;;;;;75.47;33.65;;;3.10;90.70;;;;;;2073416;28;20030;-70
2020/12/11 03:49:48;;;;;;;71.32;33.65;;;3.10;90.70;;;;;;2073382;28;20036;-70
2020/12/11 03:50:48;;;;;;;71.32;33.25;;;3.10;90.70;;;;;;2073338;28;20612;-69
2020/12/11 03:51:53;;;;;;;78.82;34.95;;;3.10;90.70;;;;;;2073618;28;20025;-70
2020/12/11 03:52:54;;;;;;;77.15;33.97;;;3.10;90.80;;;;;;2073513;28;20030;-70
2020/12/11 03:53:54;;;;;;;77.57;34.45;;;3.10;90.90;;;;;;2072857;28;20064;-69
2020/12/11 03:54:56;;;;;;;73.78;33.63;;;3.10;90.80;;;;;;2072801;28;20041;-70
2020/12/11 03:55:57;;;;;;;75.32;34.13;;;3.10;90.80;;;;;;2073340;28;20044;-70
2020/12/11 03:56:57;;;;;;;77.47;34.72;;;3.10;90.90;;;;;;2073397;28;20732;-70
2020/12/11 03:57:58;;;;;;;73.93;34.33;;;3.10;91.00;;;;;;2073350;28;20104;-70
2020/12/11 03:58:59;;;;;;;77.32;34.00;;;3.10;91.00;;;;;;2080575;28;20566;-70
2020/12/11 03:59:59;;;;;;;70.25;32.22;;;3.00;91.00;;;;;;2072636;28;20540;-70
2020/12/11 04:01:00;;;;;;;74.60;33.70;;;3.10;91.10;;;;;;2072589;28;20029;-70
2020/12/11 04:02:01;;;;;;;71.88;32.35;;;3.00;91.10;;;;;;2072637;28;20029;-70
2020/12/11 04:03:01;;;;;;;73.70;34.38;;;3.10;91.20;;;;;;2073289;28;20036;-70
2020/12/11 04:04:02;;;;;;;75.22;34.13;;;3.10;91.30;;;;;;2073228;28;20503;-70
2020/12/11 04:05:04;;;;;;;74.63;33.83;;;3.10;91.20;;;;;;2073364;28;20563;-70
2020/12/11 04:06:09;;;;;;;74.72;34.45;;;3.10;91.20;;;;;;2073420;28;20018;-70
2020/12/11 04:07:10;;;;;;;71.68;34.10;;;3.10;91.10;;;;;;2072719;28;20129;-70
2020/12/11 04:08:11;;;;;;;77.20;35.03;;;3.10;91.00;;;;;;2072757;28;20568;-70
2020/12/11 04:09:12;;;;;;;69.82;33.40;;;3.10;90.90;;;;;;2073087;28;20032;-70
2020/12/11 04:10:13;;;;;;;70.57;32.70;;;3.10;90.90;;;;;;2072638;28;20061;-71
2020/12/11 04:11:15;;;;;;;72.82;32.67;;;3.10;90.90;;;;;;2072733;28;20033;-70
2020/12/11 04:12:15;;;;;;;69.63;33.05;;;3.10;90.90;;;;;;2072695;28;20026;-70
2020/12/11 04:13:16;;;;;;;70.75;32.42;;;3.10;90.90;;;;;;2072801;28;20029;-70
2020/12/11 04:14:17;;;;;;;69.45;32.10;;;3.10;90.90;;;;;;2072457;28;20022;-69
2020/12/11 04:15:17;;;;;;;66.93;31.88;;;3.10;90.90;;;;;;2072546;28;20033;-70
2020/12/11 04:16:18;;;;;;;71.82;31.85;;;3.20;90.90;;;;;;2072619;28;20109;-70
2020/12/11 04:17:19;;;;;;;70.13;31.77;;;3.20;90.90;;;;;;2072763;28;20032;-70
2020/12/11 04:18:19;;;;;;;66.93;32.50;;;3.20;90.80;;;;;;2072440;28;20811;-70
2020/12/11 04:19:20;;;;;;;70.72;33.72;;;3.20;90.80;;;;;;2072669;28;20545;-70
2020/12/11 04:20:21;;;;;;;66.30;32.00;;;3.20;90.80;;;;;;2073053;28;20369;-70
2020/12/11 04:21:21;;;;;;;68.10;31.48;;;3.20;90.80;;;;;;2073201;28;20029;-70
2020/12/11 04:22:26;;;;;;;69.07;32.28;;;3.20;90.90;;;;;;2073180;28;20022;-70
2020/12/11 04:23:27;;;;;;;65.18;31.77;;;3.20;90.80;;;;;;2073206;28;20477;-70
2020/12/11 04:24:28;;;;;;;66.18;31.80;;;3.20;91.20;;;;;;2073355;28;20030;-70
2020/12/11 04:25:28;;;;;;;66.43;31.20;;;3.20;90.80;;;;;;2073300;28;20042;-70
2020/12/11 04:26:29;;;;;;;63.03;30.73;;;3.20;90.80;;;;;;2073451;28;20072;-70
2020/12/11 04:27:30;;;;;;;65.35;30.73;;;3.20;90.80;;;;;;2073296;28;20029;-70
2020/12/11 04:28:30;;;;;;;68.60;31.42;;;3.20;90.80;;;;;;2072248;28;20030;-70
2020/12/11 04:29:31;;;;;;;65.30;31.23;;;3.20;90.80;;;;;;2072460;28;20029;-70
2020/12/11 04:30:32;;;;;;;65.32;30.88;;;3.20;90.90;;;;;;2072619;28;20087;-70
2020/12/11 04:31:33;;;;;;;63.08;30.08;;;3.20;90.80;;;;;;2072592;28;20248;-70
2020/12/11 04:32:33;;;;;;;63.25;31.00;;;3.20;90.80;;;;;;2072554;28;20030;-70
2020/12/11 04:33:34;;;;;;;67.78;31.42;;;3.20;90.80;;;;;;2072611;28;20030;-70
2020/12/11 04:34:35;;;;;;;68.35;31.40;;;3.20;90.80;;;;;;2073106;28;20030;-70
2020/12/11 04:35:35;;;;;;;64.75;31.65;;;3.20;90.80;;;;;;2073044;28;20041;-70
2020/12/11 04:36:36;;;;;;;67.55;32.30;;;3.20;90.80;;;;;;2073034;28;20026;-70
2020/12/11 04:37:37;;;;;;;68.50;32.35;;;3.20;90.80;;;;;;2073161;28;20088;-70
2020/12/11 04:38:37;;;;;;;66.13;32.22;;;3.20;90.90;;;;;;2072848;28;20504;-70
2020/12/11 04:39:38;;;;;;;67.60;32.25;;;3.20;90.90;;;;;;2072885;28;20052;-70
2020/12/11 04:40:39;;;;;;;73.68;34.10;;;3.30;90.90;;;;;;2080552;28;20507;-70
2020/12/11 04:41:44;;;;;;;70.70;33.88;;;3.20;90.90;;;;;;2080628;28;20532;-70
2020/12/11 04:42:46;;;;;;;71.32;33.78;;;3.20;91.20;;;;;;2073047;28;20037;-70
2020/12/11 04:43:50;;;;;;;70.90;32.88;;;3.20;90.70;;;;;;2072940;28;20608;-70
2020/12/11 04:44:51;;;;;;;69.15;32.88;;;3.20;90.80;;;;;;2072952;28;20033;-70
2020/12/11 04:45:53;;;;;;;68.15;32.25;;;3.20;90.80;;;;;;2073014;28;20028;-70
2020/12/11 04:46:54;;;;;;;73.75;34.25;;;3.20;90.90;;;;;;2073167;28;20022;-71
2020/12/11 04:47:55;;;;;;;69.00;32.28;;;3.20;90.90;;;;;;2073024;28;20547;-70
2020/12/11 04:48:57;;;;;;;69.03;32.78;;;3.30;91.00;;;;;;2073007;28;20057;-70
2020/12/11 04:49:58;;;;;;;67.75;32.45;;;3.30;91.00;;;;;;2072187;28;20449;-70
2020/12/11 04:51:02;;;;;;;63.67;31.02;;;3.30;90.90;;;;;;2064266;28;20476;-70
2020/12/11 04:52:06;;;;;;;68.22;31.77;;;3.30;90.90;;;;;;2072650;28;20048;-70
2020/12/11 04:53:13;;;;;;;67.32;32.10;;;3.30;90.90;;;;;;2080193;28;20033;-70
2020/12/11 04:54:20;;;;;;;69.93;32.55;;;3.20;90.90;;;;;;2073092;28;20751;-70
2020/12/11 04:55:21;;;;;;;72.20;33.50;;;3.20;90.90;;;;;;2072321;28;20046;-70
2020/12/11 04:56:22;;;;;;;66.22;31.65;;;3.20;91.00;;;;;;2072342;28;20093;-70
2020/12/11 04:57:29;;;;;;;69.55;32.20;;;3.20;91.00;;;;;;2072869;28;20099;-70
2020/12/11 04:58:31;;;;;;;72.60;32.78;;;3.20;91.00;;;;;;2072680;28;20473;-70
2020/12/11 04:59:33;;;;;;;65.97;32.13;;;3.20;91.00;;;;;;2072962;28;20026;-70
2020/12/11 05:00:33;;;;;;;65.10;31.45;;;3.20;91.00;;;;;;2072920;28;20148;-70
2020/12/11 05:01:34;;;;;;;67.78;32.00;;;3.20;91.00;;;;;;2073143;28;20444;-71
2020/12/11 05:02:38;;;;;;;68.10;31.92;;;3.30;91.00;;;;;;2073372;28;20034;-70
2020/12/11 05:03:39;;;;;;;68.95;31.42;;;3.20;91.00;;;;;;2073458;28;20037;-70
2020/12/11 05:04:39;;;;;;;77.93;36.35;;;3.20;91.00;;;;;;2073336;28;20104;-70
2020/12/11 05:05:40;;;;;;;68.70;33.10;;;3.20;91.00;;;;;;2074906;28;20499;-71
2020/12/11 05:06:41;;;;;;;72.72;35.25;;;3.20;91.10;;;;;;2074724;28;20507;-70
2020/12/11 05:07:42;;;;;;;77.72;35.42;;;3.20;91.20;;;;;;2066197;28;20113;-71
2020/12/11 05:08:43;;;;;;;76.90;34.80;;;3.20;91.20;;;;;;2073581;28;20129;-70
2020/12/11 05:09:54;;;;;;;73.53;33.45;;;3.30;91.30;;;;;;2075459;28;20622;-70
2020/12/11 05:10:54;;;;;;;68.13;33.10;;;3.20;91.20;;;;;;2077113;28;20045;-69
2020/12/11 05:11:55;;;;;;;72.40;33.65;;;3.30;91.30;;;;;;2074210;28;20477;-70
2020/12/11 05:12:55;;;;;;;75.97;34.80;;;3.20;91.20;;;;;;2073454;28;20108;-70
2020/12/11 05:13:56;;;;;;;70.10;34.15;;;3.20;91.10;;;;;;2073211;28;20120;-70